sensor_id;sensor_type;location;lat;lon;timestamp;pressure;altitude;pressure_sealevel;temperature;humidity
48352;BME280;34163;49.314;6.752;2023-08-12T05:23:11;99765.16;;;9.80;100.00
48352;BME280;34163;49.314;6.752;2023-08-12T05:25:36;99759.63;;;9.86;100.00
48352;BME280;34163;49.314;6.752;2023-08-12T05:28:08;99755.31;;;9.84;100.00
48352;BME280;34163;49.314;6.752;2023-08-12T05:30:34;99745.56;;;9.84;100.00
48352;BME280;34163;49.314;6.752;2023-08-12T05:33:01;99756.81;;;9.91;100.00
48352;BME280;34163;49.314;6.752;2023-08-12T05:35:27;99755.06;;;9.90;100.00
48352;BME280;34163;49.314;6.752;2023-08-12T05:37:52;99766.63;;;9.87;100.00
48352;BME280;34163;49.314;6.752;2023-08-12T05:40:20;99776.25;;;9.90;100.00
48352;BME280;34163;49.314;6.752;2023-08-12T05:42:45;99769.34;;;9.86;100.00
48352;BME280;34163;49.314;6.752;2023-08-12T05:45:11;99787.06;;;9.84;100.00
48352;BME280;34163;49.314;6.752;2023-08-12T05:47:36;99792.31;;;9.85;100.00
48352;BME280;34163;49.314;6.752;2023-08-12T05:50:04;99788.69;;;9.88;100.00
48352;BME280;34163;49.314;6.752;2023-08-12T05:52:32;99792.13;;;9.90;100.00
48352;BME280;34163;49.314;6.752;2023-08-12T05:54:57;99792.06;;;9.91;100.00
48352;BME280;34163;49.314;6.752;2023-08-12T05:57:23;99787.00;;;9.85;100.00
48352;BME280;34163;49.314;6.752;2023-08-12T05:59:48;99781.53;;;9.90;100.00
48352;BME280;34163;49.314;6.752;2023-08-12T06:02:13;99778.72;;;9.94;100.00
48352;BME280;34163;49.314;6.752;2023-08-12T06:04:39;99789.78;;;10.04;100.00
48352;BME280;34163;49.314;6.752;2023-08-12T06:07:04;99782.53;;;10.30;100.00
48352;BME280;34163;49.314;6.752;2023-08-12T06:09:29;99790.00;;;10.20;100.00
48352;BME280;34163;49.314;6.752;2023-08-12T06:11:55;99794.66;;;10.15;100.00
48352;BME280;34163;49.314;6.752;2023-08-12T06:14:20;99789.59;;;10.09;100.00
48352;BME280;34163;49.314;6.752;2023-08-12T06:16:45;99789.97;;;9.99;100.00
48352;BME280;34163;49.314;6.752;2023-08-12T06:19:10;99784.47;;;10.04;100.00
48352;BME280;34163;49.314;6.752;2023-08-12T06:21:36;99784.66;;;9.99;100.00
48352;BME280;34163;49.314;6.752;2023-08-12T06:24:01;99775.69;;;10.04;100.00
48352;BME280;34163;49.314;6.752;2023-08-12T06:26:26;99787.19;;;10.03;100.00
48352;BME280;34163;49.314;6.752;2023-08-12T06:28:52;99798.88;;;9.97;100.00
48352;BME280;34163;49.314;6.752;2023-08-12T06:31:17;99795.06;;;10.04;100.00
48352;BME280;34163;49.314;6.752;2023-08-12T06:33:42;99796.94;;;10.02;100.00
48352;BME280;34163;49.314;6.752;2023-08-12T06:36:07;99798.69;;;10.02;100.00
48352;BME280;34163;49.314;6.752;2023-08-12T06:38:33;99803.19;;;9.99;100.00
48352;BME280;34163;49.314;6.752;2023-08-12T06:40:58;99805.72;;;10.03;100.00
48352;BME280;34163;49.314;6.752;2023-08-12T06:43:23;99813.84;;;9.98;100.00
48352;BME280;34163;49.314;6.752;2023-08-12T06:45:48;99823.53;;;9.99;100.00
48352;BME280;34163;49.314;6.752;2023-08-12T06:48:14;99816.44;;;9.99;100.00
48352;BME280;34163;49.314;6.752;2023-08-12T06:50:39;99803.19;;;9.99;100.00
48352;BME280;34163;49.314;6.752;2023-08-12T06:53:04;99781.00;;;10.04;100.00
48352;BME280;34163;49.314;6.752;2023-08-12T06:55:29;99774.63;;;10.08;100.00
48352;BME280;34163;49.314;6.752;2023-08-12T06:57:55;99770.00;;;10.35;100.00
48352;BME280;34163;49.314;6.752;2023-08-12T07:23:36;99775.94;;;10.20;100.00
48352;BME280;34163;49.314;6.752;2023-08-12T07:26:01;99780.22;;;10.22;100.00
48352;BME280;34163;49.314;6.752;2023-08-12T07:28:28;99767.81;;;10.23;100.00
48352;BME280;34163;49.314;6.752;2023-08-12T07:30:56;99760.94;;;10.18;100.00
48352;BME280;34163;49.314;6.752;2023-08-12T07:33:21;99762.81;;;10.16;100.00
48352;BME280;34163;49.314;6.752;2023-08-12T07:35:47;99767.91;;;10.21;100.00
48352;BME280;34163;49.314;6.752;2023-08-12T07:38:12;99765.53;;;10.15;100.00
48352;BME280;34163;49.314;6.752;2023-08-12T07:40:37;99766.97;;;10.22;100.00
48352;BME280;34163;49.314;6.752;2023-08-12T07:43:02;99764.44;;;10.19;100.00
48352;BME280;34163;49.314;6.752;2023-08-12T07:45:28;99762.06;;;10.13;100.00
48352;BME280;34163;49.314;6.752;2023-08-12T07:47:54;99761.56;;;10.25;100.00
48352;BME280;34163;49.314;6.752;2023-08-12T07:50:19;99771.47;;;10.20;100.00
48352;BME280;34163;49.314;6.752;2023-08-12T07:52:44;99771.66;;;10.15;100.00
48352;BME280;34163;49.314;6.752;2023-08-12T07:55:10;99766.84;;;10.25;100.00
48352;BME280;34163;49.314;6.752;2023-08-12T07:57:35;99768.72;;;10.23;100.00
48352;BME280;34163;49.314;6.752;2023-08-12T08:00:00;99768.66;;;10.25;100.00
48352;BME280;34163;49.314;6.752;2023-08-12T08:02:26;99771.28;;;10.25;100.00
48352;BME280;34163;49.314;6.752;2023-08-12T08:04:51;99776.47;;;10.28;100.00
48352;BME280;34163;49.314;6.752;2023-08-12T08:07:16;99779.19;;;10.26;100.00
48352;BME280;34163;49.314;6.752;2023-08-12T08:09:43;99767.56;;;10.29;100.00
48352;BME280;34163;49.314;6.752;2023-08-12T08:12:08;99759.81;;;10.24;100.00
48352;BME280;34163;49.314;6.752;2023-08-12T08:14:34;99758.44;;;10.15;100.00
48352;BME280;34163;49.314;6.752;2023-08-12T08:16:59;99753.59;;;10.25;100.00
48352;BME280;34163;49.314;6.752;2023-08-12T08:19:24;99753.84;;;10.19;100.00
48352;BME280;34163;49.314;6.752;2023-08-12T08:21:51;99761.81;;;10.19;100.00
48352;BME280;34163;49.314;6.752;2023-08-12T08:24:16;99766.19;;;10.20;100.00
48352;BME280;34163;49.314;6.752;2023-08-12T08:26:41;99781.16;;;10.21;100.00
48352;BME280;34163;49.314;6.752;2023-08-12T08:29:09;99785.81;;;10.14;100.00
48352;BME280;34163;49.314;6.752;2023-08-12T08:34:29;99787.50;;;10.17;100.00
48352;BME280;34163;49.314;6.752;2023-08-12T08:36:54;99807.06;;;10.13;100.00
48352;BME280;34163;49.314;6.752;2023-08-12T08:39:19;99806.75;;;10.21;100.00
48352;BME280;34163;49.314;6.752;2023-08-12T08:41:44;99803.44;;;10.15;100.00
48352;BME280;34163;49.314;6.752;2023-08-12T08:44:12;99802.53;;;10.16;100.00
48352;BME280;34163;49.314;6.752;2023-08-12T08:46:39;99811.19;;;10.20;100.00
48352;BME280;34163;49.314;6.752;2023-08-12T08:49:06;99807.53;;;10.23;100.00
48352;BME280;34163;49.314;6.752;2023-08-12T08:51:32;99804.84;;;10.24;100.00
48352;BME280;34163;49.314;6.752;2023-08-12T08:53:57;99806.81;;;10.19;100.00
48352;BME280;34163;49.314;6.752;2023-08-12T08:56:23;99805.78;;;10.23;100.00
48352;BME280;34163;49.314;6.752;2023-08-12T08:58:49;99809.88;;;10.30;100.00
48352;BME280;34163;49.314;6.752;2023-08-12T09:01:15;99814.22;;;10.33;100.00
48352;BME280;34163;49.314;6.752;2023-08-12T09:03:42;99811.69;;;10.30;100.00
48352;BME280;34163;49.314;6.752;2023-08-12T09:06:08;99817.88;;;10.29;100.00
48352;BME280;34163;49.314;6.752;2023-08-12T09:08:34;99814.91;;;10.38;100.00
48352;BME280;34163;49.314;6.752;2023-08-12T09:11:01;99805.31;;;10.35;100.00
48352;BME280;34163;49.314;6.752;2023-08-12T09:13:27;99797.50;;;10.32;100.00
48352;BME280;34163;49.314;6.752;2023-08-12T09:15:52;99814.97;;;10.36;100.00
48352;BME280;34163;49.314;6.752;2023-08-12T09:18:18;99826.50;;;10.35;100.00
48352;BME280;34163;49.314;6.752;2023-08-12T09:20:43;99822.84;;;10.38;100.00
48352;BME280;34163;49.314;6.752;2023-08-12T09:23:08;99834.28;;;10.39;100.00
48352;BME280;34163;49.314;6.752;2023-08-12T09:25:46;99836.09;;;10.38;100.00
48352;BME280;34163;49.314;6.752;2023-08-12T09:28:11;99844.97;;;10.37;100.00
48352;BME280;34163;49.314;6.752;2023-08-12T09:30:37;99837.09;;;10.35;100.00
48352;BME280;34163;49.314;6.752;2023-08-12T09:33:06;99853.91;;;10.34;100.00
48352;BME280;34163;49.314;6.752;2023-08-12T09:35:33;99854.69;;;10.36;100.00
48352;BME280;34163;49.314;6.752;2023-08-12T09:37:58;99860.78;;;10.39;100.00
48352;BME280;34163;49.314;6.752;2023-08-12T09:40:24;99858.34;;;10.34;100.00
48352;BME280;34163;49.314;6.752;2023-08-12T09:42:49;99857.22;;;10.40;100.00
48352;BME280;34163;49.314;6.752;2023-08-12T09:45:15;99845.94;;;10.34;100.00
48352;BME280;34163;49.314;6.752;2023-08-12T09:47:41;99812.38;;;18.13;100.00
48352;BME280;34163;49.314;6.752;2023-08-12T09:50:07;99848.66;;;12.67;100.00
48352;BME280;34163;49.314;6.752;2023-08-12T09:52:32;99848.84;;;11.71;100.00
48352;BME280;34163;49.314;6.752;2023-08-12T09:54:57;99835.72;;;11.30;100.00
48352;BME280;34163;49.314;6.752;2023-08-12T09:57:25;99830.91;;;10.98;100.00
48352;BME280;34163;49.314;6.752;2023-08-12T09:59:51;99801.16;;;10.92;100.00
48352;BME280;34163;49.314;6.752;2023-08-12T10:02:18;99805.63;;;10.89;100.00
48352;BME280;34163;49.314;6.752;2023-08-12T10:04:47;99815.91;;;11.18;100.00
48352;BME280;34163;49.314;6.752;2023-08-12T10:07:15;99806.25;;;10.96;100.00
48352;BME280;34163;49.314;6.752;2023-08-12T10:09:42;99815.22;;;11.33;100.00
48352;BME280;34163;49.314;6.752;2023-08-12T10:12:08;99815.00;;;10.98;100.00
48352;BME280;34163;49.314;6.752;2023-08-12T10:14:34;99806.78;;;10.84;100.00
48352;BME280;34163;49.314;6.752;2023-08-12T10:16:59;99796.56;;;10.75;100.00
48352;BME280;34163;49.314;6.752;2023-08-12T10:19:24;99782.69;;;10.69;100.00
48352;BME280;34163;49.314;6.752;2023-08-12T10:21:50;99773.25;;;10.62;100.00
48352;BME280;34163;49.314;6.752;2023-08-12T10:24:19;99762.78;;;10.59;100.00
48352;BME280;34163;49.314;6.752;2023-08-12T10:26:45;99744.09;;;10.62;100.00
48352;BME280;34163;49.314;6.752;2023-08-12T10:29:10;99734.59;;;10.58;100.00
48352;BME280;34163;49.314;6.752;2023-08-12T10:31:37;99725.63;;;10.61;100.00
48352;BME280;34163;49.314;6.752;2023-08-12T10:34:05;99706.88;;;10.65;100.00
48352;BME280;34163;49.314;6.752;2023-08-12T10:36:54;99714.03;;;10.63;100.00
48352;BME280;34163;49.314;6.752;2023-08-12T10:39:21;99732.06;;;10.55;100.00
48352;BME280;34163;49.314;6.752;2023-08-12T10:41:50;99738.94;;;10.59;100.00
48352;BME280;34163;49.314;6.752;2023-08-12T10:44:17;99738.28;;;10.54;100.00
48352;BME280;34163;49.314;6.752;2023-08-12T10:46:49;99747.19;;;10.53;100.00
48352;BME280;34163;49.314;6.752;2023-08-12T10:49:15;99758.44;;;10.58;100.00
48352;BME280;34163;49.314;6.752;2023-08-12T10:54:31;99749.84;;;10.53;100.00
48352;BME280;34163;49.314;6.752;2023-08-12T11:04:53;99764.72;;;10.56;100.00
48352;BME280;34163;49.314;6.752;2023-08-12T11:07:19;99769.03;;;10.58;100.00
48352;BME280;34163;49.314;6.752;2023-08-12T11:09:45;99772.53;;;10.59;100.00
48352;BME280;34163;49.314;6.752;2023-08-12T11:12:10;99781.25;;;10.61;100.00
48352;BME280;34163;49.314;6.752;2023-08-12T11:14:48;99780.75;;;10.52;100.00
48352;BME280;34163;49.314;6.752;2023-08-12T11:17:14;99783.19;;;10.57;100.00
48352;BME280;34163;49.314;6.752;2023-08-12T11:22:30;99798.19;;;10.58;100.00
48352;BME280;34163;49.314;6.752;2023-08-12T11:24:58;99796.38;;;10.59;100.00
48352;BME280;34163;49.314;6.752;2023-08-12T11:27:23;99786.75;;;10.56;100.00
48352;BME280;34163;49.314;6.752;2023-08-12T11:29:49;99783.31;;;10.54;100.00
48352;BME280;34163;49.314;6.752;2023-08-12T11:32:15;99779.63;;;10.58;100.00
48352;BME280;34163;49.314;6.752;2023-08-12T11:34:41;99774.47;;;10.55;100.00
48352;BME280;34163;49.314;6.752;2023-08-12T11:37:06;99768.38;;;10.53;100.00
48352;BME280;34163;49.314;6.752;2023-08-12T11:39:31;99759.69;;;10.49;100.00
48352;BME280;34163;49.314;6.752;2023-08-12T11:41:57;99747.44;;;10.47;100.00
48352;BME280;34163;49.314;6.752;2023-08-12T11:44:23;99750.69;;;10.53;100.00
48352;BME280;34163;49.314;6.752;2023-08-12T11:46:49;99744.78;;;10.47;100.00
48352;BME280;34163;49.314;6.752;2023-08-12T11:49:14;99735.50;;;10.57;100.00
48352;BME280;34163;49.314;6.752;2023-08-12T11:51:39;99735.06;;;10.47;100.00
48352;BME280;34163;49.314;6.752;2023-08-12T11:54:05;99736.03;;;10.45;100.00
48352;BME280;34163;49.314;6.752;2023-08-12T11:56:31;99729.41;;;10.55;100.00
48352;BME280;34163;49.314;6.752;2023-08-12T11:58:56;99729.81;;;10.46;100.00
48352;BME280;34163;49.314;6.752;2023-08-12T12:01:22;99728.63;;;10.53;100.00
48352;BME280;34163;49.314;6.752;2023-08-12T12:03:52;99722.53;;;10.51;100.00
48352;BME280;34163;49.314;6.752;2023-08-12T12:06:17;99725.31;;;10.48;100.00
48352;BME280;34163;49.314;6.752;2023-08-12T12:08:45;99730.72;;;10.45;100.00
48352;BME280;34163;49.314;6.752;2023-08-12T12:11:13;99735.06;;;10.47;100.00
48352;BME280;34163;49.314;6.752;2023-08-12T12:13:39;99741.13;;;10.49;100.00
48352;BME280;34163;49.314;6.752;2023-08-12T12:16:09;99749.97;;;10.50;100.00
48352;BME280;34163;49.314;6.752;2023-08-12T12:18:35;99751.72;;;10.49;100.00
48352;BME280;34163;49.314;6.752;2023-08-12T12:21:20;99751.78;;;10.48;100.00
48352;BME280;34163;49.314;6.752;2023-08-12T12:23:47;99756.25;;;10.47;100.00
48352;BME280;34163;49.314;6.752;2023-08-12T12:26:13;99755.59;;;10.42;100.00
48352;BME280;34163;49.314;6.752;2023-08-12T12:28:38;99758.03;;;10.47;100.00
48352;BME280;34163;49.314;6.752;2023-08-12T12:31:03;99763.41;;;10.45;100.00
48352;BME280;34163;49.314;6.752;2023-08-12T12:33:28;99771.16;;;10.50;100.00
48352;BME280;34163;49.314;6.752;2023-08-12T12:35:57;99760.44;;;10.53;100.00
48352;BME280;34163;49.314;6.752;2023-08-12T12:38:39;99765.84;;;10.50;100.00
48352;BME280;34163;49.314;6.752;2023-08-12T12:41:08;99771.28;;;10.47;100.00
48352;BME280;34163;49.314;6.752;2023-08-12T12:43:34;99780.81;;;10.51;100.00
48352;BME280;34163;49.314;6.752;2023-08-12T12:45:59;99781.63;;;10.53;100.00
48352;BME280;34163;49.314;6.752;2023-08-12T12:48:24;99780.09;;;10.47;100.00
48352;BME280;34163;49.314;6.752;2023-08-12T12:50:49;99788.81;;;10.49;100.00
48352;BME280;34163;49.314;6.752;2023-08-12T12:53:15;99783.44;;;10.51;100.00
48352;BME280;34163;49.314;6.752;2023-08-12T12:55:40;99788.09;;;10.46;100.00
48352;BME280;34163;49.314;6.752;2023-08-12T12:58:22;99782.94;;;10.43;100.00
48352;BME280;34163;49.314;6.752;2023-08-12T13:00:48;99786.41;;;10.43;100.00
48352;BME280;34163;49.314;6.752;2023-08-12T13:03:13;99773.25;;;10.42;100.00
48352;BME280;34163;49.314;6.752;2023-08-12T13:05:39;99774.97;;;10.43;100.00
48352;BME280;34163;49.314;6.752;2023-08-12T13:08:04;99781.19;;;10.42;100.00
48352;BME280;34163;49.314;6.752;2023-08-12T13:10:30;99777.88;;;10.36;100.00
48352;BME280;34163;49.314;6.752;2023-08-12T13:12:55;99771.28;;;10.47;100.00
48352;BME280;34163;49.314;6.752;2023-08-12T13:15:20;99774.06;;;10.44;100.00
48352;BME280;34163;49.314;6.752;2023-08-12T13:17:46;99773.47;;;10.37;100.00
48352;BME280;34163;49.314;6.752;2023-08-12T13:20:11;99778.03;;;10.32;100.00
48352;BME280;34163;49.314;6.752;2023-08-12T13:22:36;99783.97;;;10.39;100.00
48352;BME280;34163;49.314;6.752;2023-08-12T13:25:01;99793.72;;;10.38;100.00
48352;BME280;34163;49.314;6.752;2023-08-12T13:27:27;99800.16;;;10.32;100.00
48352;BME280;34163;49.314;6.752;2023-08-12T13:29:52;99801.94;;;10.30;100.00
48352;BME280;34163;49.314;6.752;2023-08-12T13:32:18;99805.47;;;10.31;100.00
48352;BME280;34163;49.314;6.752;2023-08-12T13:34:46;99816.56;;;10.41;100.00
48352;BME280;34163;49.314;6.752;2023-08-12T13:37:12;99803.38;;;10.39;100.00
48352;BME280;34163;49.314;6.752;2023-08-12T13:39:38;99808.09;;;10.32;100.00
48352;BME280;34163;49.314;6.752;2023-08-12T13:42:03;99815.03;;;10.35;100.00
48352;BME280;34163;49.314;6.752;2023-08-12T13:44:28;99808.81;;;10.36;100.00
48352;BME280;34163;49.314;6.752;2023-08-12T13:46:53;99808.88;;;10.34;100.00
48352;BME280;34163;49.314;6.752;2023-08-12T13:49:19;99800.75;;;10.39;100.00
48352;BME280;34163;49.314;6.752;2023-08-12T13:51:44;99799.28;;;10.30;100.00
48352;BME280;34163;49.314;6.752;2023-08-12T13:54:10;99812.38;;;10.35;100.00
48352;BME280;34163;49.314;6.752;2023-08-12T13:56:35;99799.06;;;10.36;100.00
48352;BME280;34163;49.314;6.752;2023-08-12T13:59:00;99784.66;;;10.44;100.00
48352;BME280;34163;49.314;6.752;2023-08-12T14:01:26;99796.16;;;10.43;100.00
48352;BME280;34163;49.314;6.752;2023-08-12T14:03:51;99801.84;;;10.33;100.00
48352;BME280;34163;49.314;6.752;2023-08-12T14:06:16;99798.28;;;10.34;100.00
48352;BME280;34163;49.314;6.752;2023-08-12T14:08:41;99791.28;;;10.32;100.00
48352;BME280;34163;49.314;6.752;2023-08-12T14:11:07;99801.09;;;10.30;100.00
48352;BME280;34163;49.314;6.752;2023-08-12T14:13:32;99792.19;;;10.32;100.00
48352;BME280;34163;49.314;6.752;2023-08-12T14:15:57;99787.69;;;10.34;100.00
48352;BME280;34163;49.314;6.752;2023-08-12T14:18:22;99791.41;;;10.29;100.00
48352;BME280;34163;49.314;6.752;2023-08-12T14:20:48;99785.25;;;10.28;100.00
48352;BME280;34163;49.314;6.752;2023-08-12T14:23:13;99792.13;;;10.34;100.00
48352;BME280;34163;49.314;6.752;2023-08-12T14:25:38;99781.53;;;10.34;100.00
48352;BME280;34163;49.314;6.752;2023-08-12T14:28:03;99785.94;;;10.33;100.00
48352;BME280;34163;49.314;6.752;2023-08-12T14:30:29;99772.53;;;10.38;100.00
48352;BME280;34163;49.314;6.752;2023-08-12T14:33:03;99781.47;;;10.35;100.00
48352;BME280;34163;49.314;6.752;2023-08-12T14:35:29;99773.13;;;10.45;100.00
48352;BME280;34163;49.314;6.752;2023-08-12T14:37:54;99775.09;;;10.40;100.00
48352;BME280;34163;49.314;6.752;2023-08-12T14:40:19;99775.09;;;10.40;100.00
48352;BME280;34163;49.314;6.752;2023-08-12T14:42:45;99774.97;;;10.43;100.00
48352;BME280;34163;49.314;6.752;2023-08-12T14:45:10;99763.53;;;10.42;100.00
48352;BME280;34163;49.314;6.752;2023-08-12T14:47:35;99770.41;;;10.46;100.00
48352;BME280;34163;49.314;6.752;2023-08-12T14:50:01;99770.59;;;10.42;100.00
48352;BME280;34163;49.314;6.752;2023-08-12T14:52:26;99759.88;;;10.45;100.00
48352;BME280;34163;49.314;6.752;2023-08-12T14:54:51;99752.88;;;10.44;100.00
48352;BME280;34163;49.314;6.752;2023-08-12T14:57:17;99749.16;;;10.48;100.00
48352;BME280;34163;49.314;6.752;2023-08-12T14:59:42;99750.03;;;10.48;100.00
48352;BME280;34163;49.314;6.752;2023-08-12T15:02:07;99742.94;;;10.49;100.00
48352;BME280;34163;49.314;6.752;2023-08-12T15:04:33;99744.59;;;10.51;100.00
48352;BME280;34163;49.314;6.752;2023-08-12T15:06:59;99743.78;;;10.49;100.00
48352;BME280;34163;49.314;6.752;2023-08-12T15:09:24;99744.09;;;10.42;100.00
48352;BME280;34163;49.314;6.752;2023-08-12T15:11:49;99745.78;;;10.44;100.00
48352;BME280;34163;49.314;6.752;2023-08-12T15:14:15;99742.28;;;10.44;100.00
48352;BME280;34163;49.314;6.752;2023-08-12T15:16:40;99738.47;;;10.49;100.00
48352;BME280;34163;49.314;6.752;2023-08-12T15:19:05;99735.78;;;10.51;100.00
48352;BME280;34163;49.314;6.752;2023-08-12T15:21:39;99732.34;;;10.49;100.00
48352;BME280;34163;49.314;6.752;2023-08-12T15:24:07;99734.06;;;10.50;100.00
48352;BME280;34163;49.314;6.752;2023-08-12T15:26:32;99738.81;;;10.42;100.00
48352;BME280;34163;49.314;6.752;2023-08-12T15:28:57;99737.88;;;10.43;100.00
48352;BME280;34163;49.314;6.752;2023-08-12T15:31:22;99742.22;;;10.45;100.00
48352;BME280;34163;49.314;6.752;2023-08-12T15:33:48;99742.16;;;10.47;100.00
48352;BME280;34163;49.314;6.752;2023-08-12T15:36:13;99738.03;;;10.40;100.00
48352;BME280;34163;49.314;6.752;2023-08-12T15:38:38;99743.06;;;10.46;100.00
48352;BME280;34163;49.314;6.752;2023-08-12T15:41:11;99751.13;;;10.43;100.00
48352;BME280;34163;49.314;6.752;2023-08-12T15:43:37;99750.34;;;10.41;100.00
48352;BME280;34163;49.314;6.752;2023-08-12T15:46:02;99747.63;;;10.42;100.00
48352;BME280;34163;49.314;6.752;2023-08-12T15:48:28;99746.38;;;10.51;100.00
48352;BME280;34163;49.314;6.752;2023-08-12T15:50:53;99737.03;;;10.42;100.00
48352;BME280;34163;49.314;6.752;2023-08-12T15:56:15;99751.06;;;10.44;100.00
48352;BME280;34163;49.314;6.752;2023-08-12T15:58:40;99746.50;;;10.48;100.00
48352;BME280;34163;49.314;6.752;2023-08-12T16:01:06;99747.38;;;10.48;100.00
48352;BME280;34163;49.314;6.752;2023-08-12T16:03:36;99748.09;;;10.52;100.00
48352;BME280;34163;49.314;6.752;2023-08-12T16:06:29;99753.53;;;10.49;100.00
48352;BME280;34163;49.314;6.752;2023-08-12T16:08:54;99743.97;;;10.45;100.00
48352;BME280;34163;49.314;6.752;2023-08-12T16:11:19;99749.00;;;10.51;100.00
48352;BME280;34163;49.314;6.752;2023-08-12T16:13:44;99748.16;;;10.50;100.00
48352;BME280;34163;49.314;6.752;2023-08-12T16:16:10;99748.09;;;10.52;100.00
48352;BME280;34163;49.314;6.752;2023-08-12T16:18:35;99743.06;;;10.46;100.00
48352;BME280;34163;49.314;6.752;2023-08-12T16:21:07;99735.63;;;10.54;100.00
48352;BME280;34163;49.314;6.752;2023-08-12T16:23:32;99732.34;;;10.49;100.00
48352;BME280;34163;49.314;6.752;2023-08-12T16:25:57;99739.22;;;10.53;100.00
48352;BME280;34163;49.314;6.752;2023-08-12T16:28:23;99735.69;;;10.52;100.00
48352;BME280;34163;49.314;6.752;2023-08-12T16:33:53;99741.78;;;10.54;100.00
48352;BME280;34163;49.314;6.752;2023-08-12T16:36:18;99728.47;;;10.56;100.00
48352;BME280;34163;49.314;6.752;2023-08-12T16:38:43;99732.72;;;10.60;100.00
48352;BME280;34163;49.314;6.752;2023-08-12T16:41:08;99734.38;;;10.63;100.00
48352;BME280;34163;49.314;6.752;2023-08-12T16:43:34;99744.25;;;10.59;100.00
48352;BME280;34163;49.314;6.752;2023-08-12T16:46:00;99739.00;;;10.58;100.00
48352;BME280;34163;49.314;6.752;2023-08-12T16:48:25;99747.97;;;10.55;100.00
48352;BME280;34163;49.314;6.752;2023-08-12T16:53:26;99745.91;;;10.62;100.00
48352;BME280;34163;49.314;6.752;2023-08-12T16:55:51;99753.00;;;10.61;100.00
48352;BME280;34163;49.314;6.752;2023-08-12T16:58:29;99751.47;;;10.56;100.00
48352;BME280;34163;49.314;6.752;2023-08-12T17:01:16;99747.56;;;10.64;100.00
48352;BME280;34163;49.314;6.752;2023-08-12T17:03:41;99745.78;;;13.52;100.00
48352;BME280;34163;49.314;6.752;2023-08-12T17:06:06;99750.81;;;11.11;100.00
48352;BME280;34163;49.314;6.752;2023-08-12T17:08:34;99751.91;;;10.86;100.00
48352;BME280;34163;49.314;6.752;2023-08-12T17:11:29;99748.28;;;10.68;100.00
48352;BME280;34163;49.314;6.752;2023-08-12T17:13:54;99746.63;;;10.65;100.00
48352;BME280;34163;49.314;6.752;2023-08-12T17:16:20;99748.75;;;10.57;100.00
48352;BME280;34163;49.314;6.752;2023-08-12T17:18:45;99748.81;;;10.56;100.00
48352;BME280;34163;49.314;6.752;2023-08-12T17:21:11;99738.47;;;10.49;100.00
48352;BME280;34163;49.314;6.752;2023-08-12T17:23:36;99741.19;;;10.48;100.00
48352;BME280;34163;49.314;6.752;2023-08-12T17:28:57;99736.97;;;10.44;100.00
48352;BME280;34163;49.314;6.752;2023-08-12T17:31:25;99731.75;;;10.42;100.00
48352;BME280;34163;49.314;6.752;2023-08-12T17:33:50;99747.75;;;10.39;100.00
48352;BME280;34163;49.314;6.752;2023-08-12T17:47:03;99753.06;;;10.39;100.00
48352;BME280;34163;49.314;6.752;2023-08-12T17:49:31;99759.22;;;10.40;100.00
48352;BME280;34163;49.314;6.752;2023-08-12T17:51:59;99755.66;;;10.41;100.00
48352;BME280;34163;49.314;6.752;2023-08-12T17:54:33;99753.06;;;10.39;100.00
48352;BME280;34163;49.314;6.752;2023-08-12T17:56:58;99756.84;;;10.32;100.00
48352;BME280;34163;49.314;6.752;2023-08-12T17:59:26;99750.69;;;10.31;100.00
48352;BME280;34163;49.314;6.752;2023-08-12T18:01:52;99756.75;;;10.35;100.00
48352;BME280;34163;49.314;6.752;2023-08-12T18:04:17;99752.34;;;10.35;100.00
48352;BME280;34163;49.314;6.752;2023-08-12T18:06:45;99761.19;;;10.34;100.00
48352;BME280;34163;49.314;6.752;2023-08-12T18:09:10;99769.09;;;10.36;100.00
48352;BME280;34163;49.314;6.752;2023-08-12T18:11:54;99758.56;;;10.34;100.00
48352;BME280;34163;49.314;6.752;2023-08-12T18:14:33;99765.59;;;10.35;100.00
48352;BME280;34163;49.314;6.752;2023-08-12T18:17:00;99772.53;;;10.38;100.00
48352;BME280;34163;49.314;6.752;2023-08-12T18:19:25;99772.66;;;10.35;100.00
48352;BME280;34163;49.314;6.752;2023-08-12T18:21:50;99776.84;;;10.41;100.00
48352;BME280;34163;49.314;6.752;2023-08-12T18:24:15;99773.69;;;10.31;100.00
48352;BME280;34163;49.314;6.752;2023-08-12T18:26:41;99780.75;;;10.30;100.00
48352;BME280;34163;49.314;6.752;2023-08-12T18:29:06;99788.53;;;10.35;100.00
48352;BME280;34163;49.314;6.752;2023-08-12T18:31:32;99789.56;;;10.31;100.00
48352;BME280;34163;49.314;6.752;2023-08-12T18:33:57;99788.53;;;10.35;100.00
48352;BME280;34163;49.314;6.752;2023-08-12T18:36:25;99793.78;;;10.36;100.00
48352;BME280;34163;49.314;6.752;2023-08-12T18:38:50;99790.28;;;10.36;100.00
48352;BME280;34163;49.314;6.752;2023-08-12T18:41:16;99796.53;;;10.33;100.00
48352;BME280;34163;49.314;6.752;2023-08-12T18:43:41;99791.06;;;10.38;100.00
48352;BME280;34163;49.314;6.752;2023-08-12T18:46:06;99792.97;;;10.34;100.00
48352;BME280;34163;49.314;6.752;2023-08-12T18:48:53;99782.31;;;10.36;100.00
48352;BME280;34163;49.314;6.752;2023-08-12T18:51:17;99780.34;;;10.41;100.00
48352;BME280;34163;49.314;6.752;2023-08-12T18:56:56;99799.00;;;10.38;100.00
48352;BME280;34163;49.314;6.752;2023-08-12T18:59:24;99792.59;;;10.44;100.00
48352;BME280;34163;49.314;6.752;2023-08-12T19:01:50;99805.16;;;10.39;100.00
48352;BME280;34163;49.314;6.752;2023-08-12T19:04:15;99802.72;;;10.34;100.00
48352;BME280;34163;49.314;6.752;2023-08-12T19:06:41;99807.91;;;10.37;100.00
48352;BME280;34163;49.314;6.752;2023-08-12T19:09:06;99804.50;;;10.33;100.00
48352;BME280;34163;49.314;6.752;2023-08-12T19:11:32;99812.31;;;10.36;100.00
48352;BME280;34163;49.314;6.752;2023-08-12T19:13:57;99806.16;;;10.36;100.00